createdAt,value
2018-05-15T00:04:02.656Z,65.40
2018-05-15T00:06:31.286Z,65.37
2018-05-15T00:08:59.507Z,68.43
2018-05-15T00:11:27.774Z,69.80
2018-05-15T00:13:56.103Z,68.90
2018-05-15T00:16:24.367Z,68.63
2018-05-15T00:18:52.703Z,65.90
2018-05-15T00:21:20.942Z,68.90
2018-05-15T00:23:49.198Z,66.17
2018-05-15T00:26:17.406Z,76.00
2018-05-15T00:28:45.679Z,68.93
2018-05-15T00:31:13.866Z,71.33
2018-05-15T00:33:42.383Z,72.87
2018-05-15T00:36:10.650Z,69.17
2018-05-15T00:38:38.838Z,77.00
2018-05-15T00:41:07.027Z,74.70
2018-05-15T00:43:35.202Z,71.30
2018-05-15T00:46:03.377Z,72.83
2018-05-15T00:48:31.792Z,75.60
2018-05-15T00:51:00.070Z,74.57
2018-05-15T00:53:28.239Z,73.23
2018-05-15T00:55:56.552Z,82.50
2018-05-15T00:58:24.734Z,74.00
2018-05-15T01:00:53.258Z,70.83
2018-05-15T01:03:21.995Z,71.73
2018-05-15T01:05:50.224Z,73.87
2018-05-15T01:08:18.432Z,73.27
2018-05-15T01:10:46.702Z,77.00
2018-05-15T01:13:14.979Z,74.77
2018-05-15T01:15:43.163Z,74.03
2018-05-15T01:18:11.358Z,76.50
2018-05-15T01:20:39.550Z,73.93
2018-05-15T01:23:07.831Z,67.63
2018-05-15T01:25:36.015Z,69.00
2018-05-15T01:28:04.227Z,70.17
2018-05-15T01:30:32.491Z,73.60
2018-05-15T01:33:00.692Z,74.70
2018-05-15T01:35:28.962Z,68.27
2018-05-15T01:37:57.146Z,60.77
2018-05-15T01:40:25.347Z,71.33
2018-05-15T01:42:53.632Z,67.23
2018-05-15T01:45:21.818Z,68.10
2018-05-15T01:47:50.018Z,62.07
2018-05-15T01:50:18.290Z,66.47
2018-05-15T01:52:46.484Z,62.97
2018-05-15T01:55:14.679Z,69.20
2018-05-15T01:57:42.950Z,67.33
2018-05-15T02:00:11.152Z,62.90
2018-05-15T02:02:39.437Z,65.07
2018-05-15T02:05:07.710Z,62.40
2018-05-15T02:07:35.904Z,61.00
2018-05-15T02:10:04.119Z,63.50
2018-05-15T02:12:32.367Z,62.07
2018-05-15T02:15:00.559Z,62.40
2018-05-15T02:17:28.750Z,60.97
2018-05-15T02:19:56.938Z,57.23
2018-05-15T02:22:25.127Z,56.27
2018-05-15T02:24:53.318Z,55.37
2018-05-15T02:27:21.602Z,54.53
2018-05-15T02:29:49.882Z,56.90
2018-05-15T02:32:18.096Z,54.63
2018-05-15T02:34:46.370Z,57.67
2018-05-15T02:37:14.652Z,56.23
2018-05-15T02:39:42.847Z,57.27
2018-05-15T02:42:11.131Z,59.07
2018-05-15T02:44:39.407Z,56.70
2018-05-15T02:47:07.606Z,57.83
2018-05-15T02:49:35.887Z,58.17
2018-05-15T02:52:04.098Z,59.20
2018-05-15T02:54:32.380Z,58.60
2018-05-15T02:57:00.654Z,56.07
2018-05-15T02:59:28.838Z,57.00
2018-05-15T03:01:57.054Z,58.17
2018-05-15T03:04:25.337Z,55.10
2018-05-15T03:06:53.507Z,56.20
2018-05-15T03:09:21.690Z,59.33
2018-05-15T03:11:49.978Z,58.97
2018-05-15T03:14:18.158Z,57.63
2018-05-15T03:16:46.359Z,58.00
2018-05-15T03:19:14.635Z,56.40
2018-05-15T03:21:42.830Z,58.40
2018-05-15T03:24:11.026Z,61.23
2018-05-15T03:26:39.294Z,56.23
2018-05-15T03:29:07.491Z,55.43
2018-05-15T03:31:35.787Z,60.97
2018-05-15T03:34:03.982Z,57.10
2018-05-15T03:36:32.258Z,58.97
2018-05-15T03:39:00.552Z,58.50
2018-05-15T03:41:28.824Z,61.17
2018-05-15T03:43:57.021Z,59.47
2018-05-15T03:46:25.229Z,57.63
2018-05-15T03:48:53.493Z,58.00
2018-05-15T03:51:21.679Z,59.57
2018-05-15T03:53:49.870Z,58.23
2018-05-15T03:57:47.331Z,57.40
2018-05-15T04:00:24.471Z,57.77
2018-05-15T04:04:01.369Z,54.40
2018-05-15T04:06:41.035Z,58.03
2018-05-15T04:09:09.302Z,56.70
2018-05-15T04:11:37.595Z,56.27
2018-05-15T04:14:05.891Z,57.03
2018-05-15T04:16:34.166Z,56.37
2018-05-15T04:19:02.358Z,55.53
2018-05-15T04:21:30.650Z,56.43
2018-05-15T04:23:58.918Z,57.00
2018-05-15T04:26:27.120Z,55.40
2018-05-15T04:28:55.530Z,54.00
2018-05-15T04:31:23.786Z,55.50
2018-05-15T04:33:51.975Z,56.40
2018-05-15T04:36:20.249Z,53.37
2018-05-15T04:38:48.454Z,55.83
2018-05-15T04:41:16.642Z,54.13
2018-05-15T04:43:44.889Z,52.67
2018-05-15T04:46:13.110Z,52.43
2018-05-15T04:48:41.307Z,48.57
2018-05-15T04:51:09.526Z,49.10
2018-05-15T04:53:37.774Z,48.40
2018-05-15T04:56:05.966Z,50.90
2018-05-15T04:58:34.183Z,50.67
2018-05-15T05:01:02.433Z,49.87
2018-05-15T05:03:30.603Z,50.27
2018-05-15T05:05:58.813Z,50.47
2018-05-15T05:08:27.104Z,54.07
2018-05-15T05:10:55.282Z,49.93
2018-05-15T05:13:23.479Z,49.93
2018-05-15T05:15:51.787Z,49.67
2018-05-15T05:18:20.174Z,50.27
2018-05-15T05:20:48.457Z,46.10
2018-05-15T05:23:16.961Z,46.70
2018-05-15T05:25:45.228Z,45.60
2018-05-15T05:28:13.580Z,46.13
2018-05-15T05:30:41.790Z,46.30
2018-05-15T05:33:10.257Z,42.47
2018-05-15T05:35:38.490Z,42.03
2018-05-15T05:38:06.777Z,44.97
2018-05-15T05:40:34.952Z,46.30
2018-05-15T05:43:03.155Z,46.33
2018-05-15T05:45:31.438Z,44.53
2018-05-15T05:47:59.726Z,41.43
2018-05-15T05:50:27.914Z,40.23
2018-05-15T05:52:56.090Z,44.87
2018-05-15T05:55:24.274Z,42.43
2018-05-15T05:57:52.479Z,40.13
2018-05-15T06:00:20.745Z,40.43
2018-05-15T06:02:48.939Z,40.00
2018-05-15T06:05:17.130Z,40.10
2018-05-15T06:07:45.410Z,41.77
2018-05-15T06:10:13.587Z,42.27
2018-05-15T06:12:41.770Z,39.97
2018-05-15T06:15:09.974Z,39.97
2018-05-15T06:17:38.178Z,38.17
2018-05-15T06:20:06.443Z,42.30
2018-05-15T06:22:34.610Z,43.10
2018-05-15T06:25:02.774Z,42.80
2018-05-15T06:27:31.114Z,38.67
2018-05-15T06:29:59.306Z,38.67
2018-05-15T06:32:27.561Z,40.43
2018-05-15T06:34:55.666Z,41.93
2018-05-15T06:37:23.857Z,42.73
2018-05-15T06:39:52.048Z,43.30
2018-05-15T06:42:20.239Z,40.73
2018-05-15T06:44:48.624Z,42.03
2018-05-15T06:47:16.806Z,45.50
2018-05-15T06:49:45.019Z,41.80
2018-05-15T06:52:13.298Z,43.93
2018-05-15T06:54:41.474Z,43.73
2018-05-15T06:57:09.670Z,43.87
2018-05-15T06:59:37.970Z,43.20
2018-05-15T07:02:06.294Z,43.10
2018-05-15T07:04:34.503Z,43.17
2018-05-15T07:07:02.686Z,45.20
2018-05-15T07:09:31.026Z,44.47
2018-05-15T07:11:59.386Z,42.47
2018-05-15T07:14:27.574Z,44.67
2018-05-15T07:16:55.784Z,43.37
2018-05-15T07:19:24.124Z,42.20
2018-05-15T07:21:52.414Z,41.03
2018-05-15T07:24:20.594Z,42.93
2018-05-15T07:26:48.838Z,43.10
2018-05-15T07:29:17.162Z,41.43
2018-05-15T07:31:45.375Z,40.17
2018-05-15T07:34:13.735Z,36.97
2018-05-15T07:36:41.938Z,39.17
2018-05-15T07:39:10.119Z,39.83
2018-05-15T07:41:38.354Z,37.70
2018-05-15T07:44:06.529Z,37.37
2018-05-15T07:46:34.722Z,36.57
2018-05-15T07:49:02.890Z,35.57
2018-05-15T07:51:31.135Z,33.77
2018-05-15T07:53:59.366Z,34.57
2018-05-15T07:56:27.588Z,32.03
2018-05-15T07:58:55.859Z,34.53
2018-05-15T08:01:24.038Z,35.97
2018-05-15T08:03:52.263Z,34.53
2018-05-15T08:06:20.544Z,33.40
2018-05-15T08:08:48.798Z,34.30
2018-05-15T08:11:17.137Z,33.77
2018-05-15T08:13:46.439Z,30.67
2018-05-15T08:16:14.737Z,31.17
2018-05-15T08:18:43.047Z,31.70
2018-05-15T08:21:11.270Z,31.70
2018-05-15T08:23:39.470Z,31.17
2018-05-15T08:26:07.686Z,29.43
2018-05-15T08:28:35.863Z,29.00
2018-05-15T08:31:04.126Z,31.63
2018-05-15T08:33:32.397Z,27.90
2018-05-15T08:36:00.615Z,30.47
2018-05-15T08:38:29.085Z,29.50
2018-05-15T08:40:57.314Z,27.70
2018-05-15T08:43:25.598Z,27.60
2018-05-15T08:45:53.970Z,29.17
2018-05-15T08:48:22.369Z,29.97
2018-05-15T08:50:50.543Z,29.10
2018-05-15T08:53:18.774Z,29.10
2018-05-15T08:55:46.975Z,29.77
2018-05-15T08:58:15.187Z,29.00
2018-05-15T09:00:43.403Z,29.00
2018-05-15T09:03:11.694Z,28.37
2018-05-15T09:05:39.919Z,28.83
2018-05-15T09:08:08.197Z,28.27
2018-05-15T09:10:36.457Z,28.60
2018-05-15T09:13:04.909Z,27.70
2018-05-15T09:15:33.070Z,26.80
2018-05-15T09:18:01.428Z,27.07
2018-05-15T09:20:29.700Z,27.03
2018-05-15T09:22:57.962Z,25.97
2018-05-15T09:25:26.495Z,26.93
2018-05-15T09:27:54.859Z,27.27
2018-05-15T09:30:23.319Z,26.00
2018-05-15T09:32:51.974Z,25.87
2018-05-15T09:35:20.331Z,24.03
2018-05-15T09:37:48.536Z,21.30
2018-05-15T09:40:16.759Z,28.63
2018-05-15T09:42:45.007Z,25.00
2018-05-15T09:45:13.207Z,24.70
2018-05-15T09:47:41.399Z,26.50
2018-05-15T09:50:09.623Z,25.27
2018-05-15T09:52:37.814Z,25.30
2018-05-15T09:55:06.059Z,25.87
2018-05-15T09:57:34.259Z,25.30
2018-05-15T10:00:02.443Z,25.47
2018-05-15T10:02:30.638Z,24.40
2018-05-15T10:04:58.903Z,24.10
2018-05-15T10:07:27.109Z,24.33
2018-05-15T10:09:55.330Z,24.87
2018-05-15T10:12:23.546Z,24.73
2018-05-15T10:14:51.812Z,23.20
2018-05-15T10:17:20.015Z,23.73
2018-05-15T10:19:48.287Z,23.40
2018-05-15T10:22:16.519Z,23.73
2018-05-15T10:24:44.761Z,22.33
2018-05-15T10:27:12.940Z,23.03
2018-05-15T10:29:41.974Z,20.77
2018-05-15T10:32:10.174Z,21.43
2018-05-15T10:34:38.383Z,22.73
2018-05-15T10:37:06.578Z,22.07
2018-05-15T10:39:34.886Z,24.17
2018-05-15T10:42:03.066Z,23.37
2018-05-15T10:44:31.235Z,22.63
2018-05-15T10:46:59.423Z,24.07
2018-05-15T10:49:27.747Z,21.43
2018-05-15T10:51:55.997Z,22.10
2018-05-15T10:54:24.188Z,23.50
2018-05-15T10:56:52.438Z,22.13
2018-05-15T10:59:20.713Z,24.27
2018-05-15T11:01:48.967Z,24.60
2018-05-15T11:04:17.302Z,25.10
2018-05-15T11:06:45.600Z,24.97
2018-05-15T11:09:13.803Z,23.77
2018-05-15T11:11:42.010Z,24.03
2018-05-15T11:14:10.298Z,22.80
2018-05-15T11:16:38.495Z,22.60
2018-05-15T11:19:15.599Z,20.97
2018-05-15T11:21:55.158Z,21.10
2018-05-15T11:24:32.335Z,20.80
2018-05-15T11:27:00.664Z,19.63
2018-05-15T11:29:28.859Z,19.70
2018-05-15T11:31:57.031Z,20.00
2018-05-15T11:34:25.220Z,21.77
2018-05-15T11:36:53.408Z,20.80
2018-05-15T11:39:21.602Z,23.20
2018-05-15T11:41:49.843Z,22.00
2018-05-15T11:44:17.962Z,23.40
2018-05-15T11:46:46.132Z,20.60
2018-05-15T11:49:14.943Z,20.63
2018-05-15T11:51:43.170Z,19.20
2018-05-15T11:54:10.743Z,19.80
2018-05-15T11:56:38.960Z,20.30
2018-05-15T11:59:07.126Z,22.37
2018-05-15T12:01:35.294Z,21.30
2018-05-15T12:04:03.534Z,21.30
2018-05-15T12:06:31.945Z,18.80
2018-05-15T12:09:00.045Z,19.80
2018-05-15T12:11:28.262Z,20.37
2018-05-15T12:13:56.439Z,20.00
2018-05-15T12:16:24.623Z,20.43
2018-05-15T12:18:52.810Z,22.03
2018-05-15T12:21:20.994Z,20.87
2018-05-15T12:23:49.183Z,22.47
2018-05-15T12:26:17.382Z,20.83
2018-05-15T12:28:45.670Z,17.43
2018-05-15T12:31:13.943Z,16.90
2018-05-15T12:33:42.217Z,17.20
2018-05-15T12:36:10.382Z,16.63
2018-05-15T12:38:38.571Z,15.93
2018-05-15T12:41:06.771Z,15.40
2018-05-15T12:43:34.943Z,14.67
2018-05-15T12:46:03.115Z,15.63
2018-05-15T12:48:31.340Z,15.60
2018-05-15T12:50:59.544Z,15.53
2018-05-15T12:53:27.820Z,14.43
2018-05-15T12:55:56.027Z,13.90
2018-05-15T12:58:24.254Z,13.60
2018-05-15T13:00:52.410Z,13.93
2018-05-15T13:03:20.603Z,14.87
2018-05-15T13:05:48.797Z,14.10
2018-05-15T13:08:16.985Z,12.87
2018-05-15T13:10:45.179Z,13.17
2018-05-15T13:13:13.415Z,13.27
2018-05-15T13:15:41.602Z,13.70
2018-05-15T13:18:09.806Z,11.90
2018-05-15T13:20:37.982Z,13.40
2018-05-15T13:23:06.264Z,11.93
2018-05-15T13:25:34.457Z,11.67
2018-05-15T13:28:02.623Z,11.10
2018-05-15T13:30:30.838Z,11.80
2018-05-15T13:32:59.199Z,11.40
2018-05-15T13:35:27.375Z,10.97
2018-05-15T13:37:55.478Z,10.10
2018-05-15T13:40:23.667Z,9.87
2018-05-15T13:42:51.936Z,9.57
2018-05-15T13:45:20.166Z,9.83
2018-05-15T13:47:48.362Z,10.30
2018-05-15T13:50:16.542Z,9.90
2018-05-15T13:52:44.798Z,10.67
2018-05-15T13:55:13.015Z,10.27
2018-05-15T13:57:41.190Z,10.67
2018-05-15T14:00:09.367Z,10.00
2018-05-15T14:02:37.671Z,9.80
2018-05-15T14:05:05.905Z,8.90
2018-05-15T14:07:34.074Z,10.33
2018-05-15T14:10:02.275Z,10.40
2018-05-15T14:12:30.501Z,9.73
2018-05-15T14:14:58.699Z,10.23
2018-05-15T14:17:26.891Z,9.60
2018-05-15T14:19:55.169Z,10.13
2018-05-15T14:22:23.355Z,10.00
2018-05-15T14:24:51.533Z,10.20
2018-05-15T14:27:19.694Z,10.10
2018-05-15T14:29:47.915Z,9.27
2018-05-15T14:32:16.099Z,10.40
2018-05-15T14:34:44.274Z,9.57
2018-05-15T14:37:12.450Z,10.13
2018-05-15T14:39:40.629Z,9.00
2018-05-15T14:42:20.070Z,10.00
2018-05-15T14:44:48.331Z,9.00
2018-05-15T14:47:16.507Z,9.80
2018-05-15T14:49:44.758Z,8.60
2018-05-15T14:52:12.979Z,8.80
2018-05-15T14:54:41.152Z,8.57
2018-05-15T14:57:09.331Z,9.20
2018-05-15T14:59:37.526Z,9.23
2018-05-15T15:02:05.719Z,8.73
2018-05-15T15:04:33.903Z,10.13
2018-05-15T15:07:02.123Z,10.60
2018-05-15T15:09:30.299Z,9.97
2018-05-15T15:11:58.505Z,9.90
2018-05-15T15:14:26.691Z,9.57
2018-05-15T15:16:54.928Z,10.27
2018-05-15T15:19:23.110Z,8.70
2018-05-15T15:21:51.331Z,9.10
2018-05-15T15:24:19.503Z,9.47
2018-05-15T15:26:47.678Z,9.30
2018-05-15T15:29:15.937Z,10.50
2018-05-15T15:31:44.047Z,10.13
2018-05-15T15:34:12.252Z,9.87
2018-05-15T15:36:40.451Z,9.67
2018-05-15T15:39:08.618Z,9.33
2018-05-15T15:41:36.802Z,9.23
2018-05-15T15:44:05.061Z,8.87
2018-05-15T15:46:33.258Z,9.30
2018-05-15T15:49:01.442Z,9.83
2018-05-15T15:51:29.756Z,9.80
2018-05-15T15:53:58.036Z,9.67
2018-05-15T15:56:26.215Z,8.87
2018-05-15T15:58:54.411Z,9.27
2018-05-15T16:01:22.588Z,9.40
2018-05-15T16:03:50.871Z,9.40
2018-05-15T16:06:19.119Z,9.67
2018-05-15T16:08:47.343Z,9.90
2018-05-15T16:11:15.563Z,11.13
2018-05-15T16:13:43.738Z,11.57
2018-05-15T16:16:11.940Z,11.20
2018-05-15T16:18:40.162Z,12.40
2018-05-15T16:21:08.346Z,10.50
2018-05-15T16:23:36.551Z,10.30
2018-05-15T16:26:04.727Z,10.77
2018-05-15T16:28:32.965Z,9.70
2018-05-15T16:31:01.115Z,10.90
2018-05-15T16:33:29.408Z,10.27
2018-05-15T16:35:57.610Z,10.53
2018-05-15T16:38:25.786Z,10.80
2018-05-15T16:40:53.963Z,9.93
2018-05-15T16:43:22.147Z,8.80
2018-05-15T16:45:50.642Z,9.83
2018-05-15T16:48:18.819Z,9.83
2018-05-15T16:50:46.986Z,10.97
2018-05-15T16:53:15.292Z,10.40
2018-05-15T16:55:43.518Z,10.20
2018-05-15T16:58:11.798Z,9.43
2018-05-15T17:00:40.082Z,10.40
2018-05-15T17:03:08.275Z,9.93
2018-05-15T17:05:36.458Z,9.77
2018-05-15T17:08:04.852Z,9.83
2018-05-15T17:10:32.930Z,10.17
2018-05-15T17:13:01.122Z,11.10
2018-05-15T17:15:29.283Z,10.00
2018-05-15T17:17:57.491Z,10.63
2018-05-15T17:20:25.670Z,10.60
2018-05-15T17:22:53.866Z,9.63
2018-05-15T17:25:22.117Z,10.20
2018-05-15T17:27:50.255Z,10.40
2018-05-15T17:30:18.530Z,10.33
2018-05-15T17:32:46.712Z,11.00
2018-05-15T17:35:14.915Z,11.00
2018-05-15T17:37:43.182Z,10.80
2018-05-15T17:40:11.375Z,11.10
2018-05-15T17:42:39.572Z,9.97
2018-05-15T17:45:07.739Z,8.90
2018-05-15T17:47:35.895Z,9.73
2018-05-15T17:50:04.129Z,9.00
2018-05-15T17:52:32.307Z,9.33
2018-05-15T17:55:00.483Z,9.90
2018-05-15T17:57:28.661Z,11.90
2018-05-15T17:59:56.890Z,12.33
2018-05-15T18:02:25.014Z,12.77
2018-05-15T18:04:53.238Z,13.10
2018-05-15T18:07:21.451Z,10.83
2018-05-15T18:09:49.614Z,11.73
2018-05-15T18:12:17.795Z,11.47
2018-05-15T18:14:45.959Z,12.30
2018-05-15T18:17:14.131Z,11.40
2018-05-15T18:19:42.331Z,12.93
2018-05-15T18:22:10.567Z,11.70
2018-05-15T18:24:38.831Z,11.27
2018-05-15T18:27:07.104Z,11.73
2018-05-15T18:29:35.330Z,12.03
2018-05-15T18:32:03.613Z,11.70
2018-05-15T18:34:31.915Z,11.23
2018-05-15T18:37:00.210Z,11.40
2018-05-15T18:39:28.470Z,11.23
2018-05-15T18:41:56.751Z,11.87
2018-05-15T18:44:24.938Z,11.50
2018-05-15T18:46:53.231Z,10.37
2018-05-15T18:49:21.406Z,11.90
2018-05-15T18:51:49.611Z,11.60
2018-05-15T18:54:17.886Z,10.97
2018-05-15T18:56:46.083Z,11.17
2018-05-15T18:59:14.267Z,12.17
2018-05-15T19:01:42.458Z,11.33
2018-05-15T19:04:10.639Z,10.50
2018-05-15T19:06:38.822Z,13.07
2018-05-15T19:09:07.019Z,11.83
2018-05-15T19:11:35.298Z,11.90
2018-05-15T19:14:03.488Z,12.23
2018-05-15T19:16:31.667Z,12.57
2018-05-15T19:18:59.851Z,12.10
2018-05-15T19:21:28.050Z,12.60
2018-05-15T19:23:56.225Z,11.53
2018-05-15T19:26:24.410Z,12.23
2018-05-15T19:28:52.607Z,12.53
2018-05-15T19:31:25.047Z,17.93
2018-05-15T19:33:53.294Z,14.60
2018-05-15T19:36:22.083Z,16.83
2018-05-15T19:38:54.526Z,14.90
2018-05-15T19:41:22.750Z,15.27
2018-05-15T19:43:50.932Z,11.37
2018-05-15T19:46:19.159Z,10.80
2018-05-15T19:48:47.406Z,11.40
2018-05-15T19:51:15.619Z,10.43
2018-05-15T19:53:43.879Z,10.03
2018-05-15T19:56:12.067Z,9.60
2018-05-15T19:58:40.258Z,8.90
2018-05-15T20:01:08.447Z,9.53
2018-05-15T20:03:36.645Z,9.63
2018-05-15T20:06:04.930Z,9.80
2018-05-15T20:08:33.206Z,12.53
2018-05-15T20:11:01.403Z,9.80
2018-05-15T20:13:29.679Z,10.10
2018-05-15T20:15:57.894Z,10.30
2018-05-15T20:18:26.087Z,9.40
2018-05-15T20:20:54.421Z,9.70
2018-05-15T20:23:22.634Z,9.63
2018-05-15T20:25:50.806Z,10.80
2018-05-15T20:28:19.020Z,10.00
2018-05-15T20:30:47.186Z,11.00
2018-05-15T20:33:15.404Z,9.43
2018-05-15T20:35:43.678Z,10.90
2018-05-15T20:38:11.855Z,10.80
2018-05-15T20:40:40.164Z,11.40
2018-05-15T20:43:08.474Z,11.33
2018-05-15T20:45:36.637Z,11.40
2018-05-15T20:48:04.943Z,10.47
2018-05-15T20:50:33.214Z,10.83
2018-05-15T20:53:01.484Z,10.50
2018-05-15T20:55:29.651Z,11.40
2018-05-15T20:57:57.859Z,11.43
2018-05-15T21:00:26.046Z,10.60
2018-05-15T21:02:54.231Z,11.27
2018-05-15T21:05:22.430Z,11.70
2018-05-15T21:07:50.706Z,12.37
2018-05-15T21:10:18.938Z,12.67
2018-05-15T21:12:47.190Z,12.90
2018-05-15T21:15:15.548Z,13.03
2018-05-15T21:17:43.668Z,13.60
2018-05-15T21:20:11.959Z,13.10
2018-05-15T21:22:40.116Z,14.30
2018-05-15T21:25:08.306Z,13.80
2018-05-15T21:27:36.526Z,13.33
2018-05-15T21:30:04.786Z,13.83
2018-05-15T21:32:32.974Z,14.83
2018-05-15T21:35:01.182Z,15.10
2018-05-15T21:37:29.489Z,16.40
2018-05-15T21:39:57.774Z,16.20
2018-05-15T21:42:26.065Z,13.43
2018-05-15T21:44:54.346Z,14.13
2018-05-15T21:47:22.627Z,16.43
2018-05-15T21:49:50.806Z,14.17
2018-05-15T21:52:19.090Z,15.37
2018-05-15T21:54:47.287Z,14.30
2018-05-15T21:57:15.562Z,15.87
2018-05-15T21:59:43.781Z,16.83
2018-05-15T22:02:12.083Z,16.47
2018-05-15T22:04:40.357Z,16.00
2018-05-15T22:07:08.639Z,15.93
2018-05-15T22:09:36.890Z,16.30
2018-05-15T22:12:16.335Z,15.80
2018-05-15T22:14:55.683Z,16.50
2018-05-15T22:17:35.463Z,15.67
2018-05-15T22:20:14.843Z,15.90
2018-05-15T22:22:42.136Z,16.13
2018-05-15T22:25:10.607Z,15.90
2018-05-15T22:27:39.290Z,17.17
2018-05-15T22:30:07.686Z,16.53
2018-05-15T22:32:35.946Z,16.20
2018-05-15T22:35:04.132Z,15.80
2018-05-15T22:37:32.322Z,16.53
2018-05-15T22:40:00.515Z,17.03
2018-05-15T22:42:28.791Z,15.30
2018-05-15T22:44:57.174Z,16.13
2018-05-15T22:47:25.864Z,15.07
2018-05-15T22:49:54.236Z,15.47
2018-05-15T22:52:22.504Z,14.93
2018-05-15T22:54:50.743Z,15.10
2018-05-15T22:57:18.954Z,14.80
2018-05-15T22:59:47.226Z,14.67
2018-05-15T23:02:15.411Z,15.30
2018-05-15T23:04:43.598Z,13.63
2018-05-15T23:07:11.787Z,14.40
2018-05-15T23:09:40.531Z,15.70
2018-05-15T23:12:08.966Z,15.20
2018-05-15T23:14:37.198Z,14.97
2018-05-15T23:17:05.464Z,15.90
2018-05-15T23:19:33.855Z,14.30
2018-05-15T23:22:02.146Z,15.60
2018-05-15T23:24:30.412Z,14.53
2018-05-15T23:26:58.610Z,15.67
2018-05-15T23:29:26.942Z,14.93
2018-05-15T23:31:55.178Z,15.27
2018-05-15T23:34:23.371Z,16.40
2018-05-15T23:36:51.550Z,16.50
2018-05-15T23:39:19.742Z,16.50
2018-05-15T23:41:47.926Z,15.60
2018-05-15T23:44:16.135Z,15.90
2018-05-15T23:46:44.405Z,17.70
2018-05-15T23:49:12.587Z,16.43
2018-05-15T23:51:40.778Z,15.90
2018-05-15T23:54:09.169Z,16.60
2018-05-15T23:56:37.363Z,16.40
2018-05-15T23:59:05.535Z,17.13
